Nearby METAR Reports
METARS update every hour


KHZD - Huntingdon, Tennessee, USA
Distance from station: WNW 13mi, 21km
Updated: Wed, 23 Aug 2017 02:35 CDT
Mist, Partly cloudy
Mist, Partly cloudy
 Wind from calm
Wind: Calm
Temperature: 70°F , 21°C
Dew Point: 70°F , 21°C
Humidity: 100%
Barometer: 30.00 inHg , 1015.9 hPa
Summary: Mist
Clouds: Partly cloudy
Visibility: 5 miles , 8 km
Cloud Details: Few Clouds 4600 ft
Partly cloudy 5000 ft
2017/08/23 07:35 KHZD 230735Z AUTO 00000KT 5SM BR FEW046 SCT050 21/21 A3000 RMK A01
KPHT - Paris Henry Cty, Tennessee, USA
Distance from station: NNW 22mi, 35km
Updated: Wed, 23 Aug 2017 02:35 CDT
Mostly cloudy
Mostly cloudy
 Wind from calm
Wind: Calm
Temperature: 70°F , 21°C
Dew Point: 70°F , 21°C
Humidity: 100%
Barometer: 30.00 inHg , 1015.9 hPa
Clouds: Mostly cloudy
Visibility: 10 miles , 16 km
Cloud Details: Mostly cloudy 4500 ft
2017/08/23 07:35 KPHT 230735Z AUTO 00000KT 10SM BKN045 21/21 A3000 RMK A01
 
KPVE - Lexington-Parson, Tennessee, USA
Distance from station: S 27mi, 43km
Updated: Wed, 23 Aug 2017 02:35 CDT
Mist, Overcast
Mist, Overcast
 Wind from NW
Wind: NW 3 mph , 6 km/h
Temperature: 72°F , 22°C
Dew Point: 72°F , 22°C
Humidity: 100%
Barometer: 30.00 inHg , 1015.9 hPa
Summary: Mist
Clouds: Overcast
Visibility: 3 miles , 5 km
Cloud Details: Overcast 300 ft
2017/08/23 07:35 KPVE 230735Z AUTO 32003KT 3SM BR OVC003 22/22 A3000 RMK A01
KCEY - Murray Kyle-Oak, Kentucky, USA
Distance from station: N 44mi, 71km
Updated: Wed, 23 Aug 2017 01:55 CDT
Partly cloudy
Partly cloudy
 Wind from WNW
Wind: WNW 6 mph , 9 km/h
Temperature: 68°F , 20°C
Dew Point: 68°F , 20°C
Humidity: 100%
Barometer: 30.03 inHg , 1016.9 hPa
Clouds: Partly cloudy
Visibility: 10 miles , 16 km
Cloud Details: Partly cloudy 4800 ft
2017/08/23 06:55 KCEY 230655Z AUTO 30005KT 10SM SCT048 20/20 A3003 RMK AO1
 
KUCY - Union City, Tennessee, USA
Distance from station: WNW 48mi, 77km
Updated: Tue, 22 Aug 2017 16:40 CDT
NOT Current
Partly cloudy
Partly cloudy
 Wind from N
Wind: N 14 mph , 22 km/h
Temperature: 77°F , 25°C
Dew Point: 72°F , 22°C
Humidity: 83%
Barometer: 29.94 inHg , 1013.9 hPa
Clouds: Partly cloudy
Visibility: 10 miles , 16 km
Cloud Details: Partly cloudy 3500 ft
Partly cloudy 4600 ft
Partly cloudy 5500 ft
2017/08/22 21:40 KUCY 222140Z AUTO 01012KT 10SM SCT035 SCT046 SCT055 25/22 A2994 RMK A01
KMKL - Jackson, Tennessee, USA
Distance from station: SW 48mi, 78km
Updated: Wed, 23 Aug 2017 02:53 CDT
Mostly cloudy
Mostly cloudy
 Wind from calm
Wind: Calm
Temperature: 70°F , 21°C
Dew Point: 70°F , 21°C
Humidity: 100%
Barometer: 30.00 inHg , 1015.9 hPa
Clouds: Mostly cloudy
Visibility: 8 miles , 13 km
Cloud Details: Mostly cloudy 4000 ft
2017/08/23 07:53 KMKL 230753Z AUTO 00000KT 8SM BKN040 21/21 A3000 RMK AO2 SLP153 T02110211
 
KM25 - Mayfield, Kentucky, USA
Distance from station: NNW 54mi, 87km
Updated: Wed, 23 Aug 2017 03:15 CDT
Clear
Clear
 Wind from NNW
Wind: NNW 5 mph , 7 km/h
Temperature: 68°F , 20°C
Dew Point: 66°F , 19°C
Humidity: 94%
Barometer: 30.03 inHg , 1016.9 hPa
Clouds: Clear
Visibility: 10 miles , 16 km
2017/08/23 08:15 KM25 230815Z AUTO 34004KT 10SM CLR 20/19 A3003 RMK AO2 PWINO
KSZY - Selmer, Tennessee, USA
Distance from station: SSW 59mi, 96km
Updated: Wed, 23 Aug 2017 02:35 CDT
Mist, Clear
Mist, Clear
 Wind from calm
Wind: Calm
Temperature: 72°F , 22°C
Dew Point: 70°F , 21°C
Humidity: 94%
Barometer: 29.99 inHg , 1015.6 hPa
Summary: Mist
Clouds: Clear
Visibility: 6 miles , 10 km
2017/08/23 07:35 KSZY 230735Z AUTO 00000KT 6SM BR CLR 22/21 A2999 RMK A01
 
KHOP - Hopkinsville, Kentucky, USA
Distance from station: NE 60mi, 97km
Updated: Wed, 23 Aug 2017 02:51 CDT
Mist, Overcast
Mist, Overcast
 Wind from NNW
Wind: NNW 5 mph , 7 km/h
Temperature: 70°F , 21°C
Dew Point: 70°F , 21°C
Humidity: 100%
Barometer: 30.01 inHg , 1016.3 hPa
Summary: Mist
Clouds: Overcast
Visibility: 4 miles , 6 km
Cloud Details: Overcast 200 ft
2017/08/23 07:51 KHOP 230751Z AUTO 34004KT 4SM R23/5000FT BR OVC002 21/21 A3001 RMK AO2 SLP158
KSNH - Savannah Hardin, Tennessee, USA
Distance from station: S 60mi, 97km
Updated: Wed, 23 Aug 2017 02:35 CDT
Fog, Overcast
Fog, Overcast
 Wind from N
Wind: N 5 mph , 7 km/h
Temperature: 72°F , 22°C
Dew Point: 72°F , 22°C
Humidity: 100%
Barometer: 29.98 inHg , 1015.2 hPa
Summary: Fog
Clouds: Overcast
Visibility: less than 1/4 mile , 2 km
Cloud Details: Overcast 200 ft
2017/08/23 07:35 KSNH 230735Z AUTO 01004KT M1/4SM FG OVC002 22/22 A2998 RMK A01
 
KCKV - Clarksville, Tennessee, USA
Distance from station: NE 61mi, 98km
Updated: Wed, 23 Aug 2017 02:52 CDT
Mostly cloudy
Mostly cloudy
 Wind from NNW
Wind: NNW 7 mph , 11 km/h
Temperature: 70°F , 21°C
Dew Point: 68°F , 20°C
Humidity: 94%
Barometer: 30.01 inHg , 1016.3 hPa
Clouds: Mostly cloudy
Visibility: 10 miles , 16 km
Cloud Details: Mostly cloudy 200 ft
2017/08/23 07:52 KCKV 230752Z AUTO 33006KT 10SM BKN002 21/20 A3001 RMK AO2 SLP155 T02110200
KDYR - Dyersburg, Tennessee, USA
Distance from station: W 65mi, 104km
Updated: Wed, 23 Aug 2017 01:56 CDT
Partly cloudy
Partly cloudy
 Wind from calm
Wind: Calm
Temperature: 73°F , 23°C
Dew Point: 72°F , 22°C
Humidity: 94%
Barometer: 30.02 inHg , 1016.6 hPa
Clouds: Partly cloudy
Visibility: 10 miles , 16 km
Cloud Details: Partly cloudy 3700 ft
2017/08/23 06:56 KDYR 230656Z AUTO 00000KT 10SM SCT037 23/22 A3002 RMK AO2 SLP175 T02280222 PNO $
 
KMRC - Columbia, Tennessee, USA
Distance from station: ESE 68mi, 110km
Updated: Wed, 23 Aug 2017 02:35 CDT
Overcast
Overcast
 Wind from calm
Wind: Calm
Temperature: 72°F , 22°C
Dew Point: 72°F , 22°C
Humidity: 100%
Barometer: 29.99 inHg , 1015.6 hPa
Clouds: Overcast
Visibility: 10 miles , 16 km
Cloud Details: Overcast 500 ft
2017/08/23 07:35 KMRC 230735Z AUTO 00000KT 10SM OVC005 22/22 A2999 RMK A01
KM08 - Bolivar/Whitehst, Tennessee, USA
Distance from station: SW 72mi, 117km
Updated: Wed, 23 Aug 2017 02:35 CDT
Clear
Clear
 Wind from calm
Wind: Calm
Temperature: 70°F , 21°C
Dew Point: 70°F , 21°C
Humidity: 100%
Barometer: 29.99 inHg , 1015.6 hPa
Clouds: Clear
Visibility: 8 miles , 13 km
2017/08/23 07:35 KM08 230735Z AUTO 00000KT 8SM CLR 21/21 A2999 RMK A01
 
KJWN - Nashv/JC Tune, Tennessee, USA
Distance from station: E 77mi, 123km
Updated: Wed, 23 Aug 2017 02:35 CDT
Overcast
Overcast
 Wind from NW
Wind: NW 5 mph , 7 km/h
Temperature: 72°F , 22°C
Dew Point: 70°F , 21°C
Humidity: 94%
Barometer: 29.98 inHg , 1015.2 hPa
Clouds: Overcast
Visibility: 10 miles , 16 km
Cloud Details: Mostly cloudy 800 ft
Overcast 1200 ft
2017/08/23 07:35 KJWN 230735Z AUTO 31004KT 10SM BKN008 OVC012 22/21 A2998 RMK A01
KPAH - Paducah, Kentucky, USA
Distance from station: NNW 77mi, 124km
Updated: Wed, 23 Aug 2017 02:53 CDT
Clear
Clear
 Wind from calm
Wind: Calm
Temperature: 70°F , 21°C
Dew Point: 63°F , 17°C
Humidity: 78%
Barometer: 30.02 inHg , 1016.6 hPa
Clouds: Clear
Visibility: 10 miles , 16 km
2017/08/23 07:53 KPAH 230753Z AUTO 00000KT 10SM CLR 21/17 A3002 RMK AO2 SLP161 T02060172
 
KCRX - Corinth/R Turner, Mississippi, USA
Distance from station: SSW 80mi, 128km
Updated: Wed, 16 Aug 2017 17:30 CDT
NOT Current
Partly cloudy
Partly cloudy
 Wind from varies
Wind: varies 7 mph , 11 km/h, Gust: 13 mph , 20 km/h
Temperature: 88°F , 31°C
Heat Index: 98°F , 37°C
Dew Point: 75°F , 24°C
Humidity: 66%
Barometer: 29.99 inHg , 1015.6 hPa
Clouds: Partly cloudy
Visibility: 10 miles , 16 km
Cloud Details: Few Clouds 2800 ft
Few Clouds 3600 ft
Partly cloudy 9000 ft
2017/08/16 22:30 KCRX 162230Z AUTO VRB06G11KT 10SM FEW028 FEW036 SCT090 31/24 A2999 RMK AO2 LTG DSNT N AND NE
KM04 - Covington Muni, Tennessee, USA
Distance from station: WSW 81mi, 131km
Updated: Wed, 23 Aug 2017 02:35 CDT
Clear
Clear
 Wind from NW
Wind: NW 5 mph , 7 km/h
Temperature: 70°F , 21°C
Dew Point: 70°F , 21°C
Humidity: 100%
Barometer: 30.00 inHg , 1015.9 hPa
Clouds: Clear
Visibility: 10 miles , 16 km
2017/08/23 07:35 KM04 230735Z AUTO 32004KT 10SM CLR 21/21 A3000 RMK A01
 
KM91 - Springfield, Tennessee, USA
Distance from station: ENE 82mi, 131km
Updated: Wed, 23 Aug 2017 02:35 CDT
Mist, Overcast
Mist, Overcast
 Wind from varies
Wind: varies 3 mph , 6 km/h
Temperature: 70°F , 21°C
Dew Point: 70°F , 21°C
Humidity: 100%
Barometer: 29.99 inHg , 1015.6 hPa
Summary: Mist
Clouds: Overcast
Visibility: 3 miles , 5 km
Cloud Details: Overcast 300 ft
2017/08/23 07:35 KM91 230735Z AUTO VRB03KT 3SM BR OVC003 21/21 A2999 RMK A01
KM30 - Metropolis, Illinois, USA
Distance from station: NNW 84mi, 135km
Updated: Wed, 23 Aug 2017 02:35 CDT
Partly cloudy
Partly cloudy
 Wind from N
Wind: N 3 mph , 6 km/h
Temperature: 68°F , 20°C
Dew Point: 64°F , 18°C
Humidity: 88%
Barometer: 30.03 inHg , 1016.9 hPa
Clouds: Partly cloudy
Visibility: 10 miles , 16 km
Cloud Details: Partly cloudy 4900 ft
2017/08/23 07:35 KM30 230735Z AUTO 01003KT 10SM SCT049 20/18 A3003 RMK AO2 T01950181
 
KNQA - Millington/88d, Tennessee, USA
Distance from station: WSW 103mi, 165km
Updated: Wed, 23 Aug 2017 02:35 CDT
Clear
Clear
 Wind from calm
Wind: Calm
Temperature: 72°F , 22°C
Dew Point: 70°F , 21°C
Humidity: 94%
Barometer: 29.99 inHg , 1015.6 hPa
Clouds: Clear
Visibility: 10 miles , 16 km
2017/08/23 07:35 KNQA 230735Z AUTO 00000KT 10SM CLR 22/21 A2999 RMK A01
K9A4 - Courtland, Alabama, USA
Distance from station: SSE 107mi, 172km
Updated: Thu, 22 Aug 2013 14:15 CDT
NOT Current
Clear
Clear
 Wind from NNE
Wind: NNE 6 mph , 9 km/h
Temperature: 84°F , 29°C
Heat Index: 89°F , 32°C
Dew Point: 72°F , 22°C
Humidity: 66%
Barometer: 30.10 inHg , 1019.3 hPa
Clouds: Clear
Visibility: 10 miles , 16 km
2013/08/22 19:15 K9A4 221915Z AUTO 03005KT 10SM CLR 29/22 A3010 RMK AO2
 
KCGI - Cape Girardeau, Missouri, USA
Distance from station: NW 111mi, 179km
Updated: Wed, 23 Aug 2017 02:53 CDT
Clear
Clear
 Wind from WNW
Wind: WNW 3 mph , 6 km/h
Temperature: 63°F , 17°C
Dew Point: 61°F , 16°C
Humidity: 94%
Barometer: 30.04 inHg , 1017.3 hPa
Clouds: Clear
Visibility: 10 miles , 16 km
2017/08/23 07:53 KCGI 230753Z AUTO 29003KT 10SM CLR 17/16 A3004 RMK AO2 SLP168 T01720161